createdAt,value
2023-01-19T00:01:10.871Z,-4.00
2023-01-19T00:03:40.884Z,-4.05
2023-01-19T00:06:12.115Z,-3.94
2023-01-19T00:08:44.742Z,-3.91
2023-01-19T00:11:15.517Z,-3.92
2023-01-19T00:13:53.749Z,-3.81
2023-01-19T00:16:25.161Z,-3.96
2023-01-19T00:18:55.802Z,-4.02
2023-01-19T00:21:25.890Z,-4.05
2023-01-19T00:23:55.919Z,-4.06
2023-01-19T00:26:27.688Z,-4.16
2023-01-19T00:29:00.233Z,-4.24
2023-01-19T00:31:34.085Z,-4.31
2023-01-19T00:34:04.307Z,-4.32
2023-01-19T00:36:34.840Z,-4.32
2023-01-19T00:39:04.884Z,-4.36
2023-01-19T00:41:47.472Z,-4.31
2023-01-19T00:44:20.050Z,-4.16
2023-01-19T00:46:50.036Z,-4.15
2023-01-19T00:49:20.430Z,-4.15
2023-01-19T00:51:50.449Z,-4.12
2023-01-19T00:54:20.739Z,-4.19
2023-01-19T00:56:50.870Z,-4.19
2023-01-19T00:59:23.455Z,-4.15
2023-01-19T01:01:53.772Z,-4.22
2023-01-19T01:04:23.927Z,-4.24
2023-01-19T01:06:53.933Z,-4.17
2023-01-19T01:09:24.372Z,-4.12
2023-01-19T01:11:54.416Z,-4.03
2023-01-19T01:14:27.248Z,-3.93
2023-01-19T01:16:57.777Z,-3.99
2023-01-19T01:19:27.770Z,-3.98
2023-01-19T01:21:58.265Z,-3.78
2023-01-19T01:24:28.287Z,-3.89
2023-01-19T01:26:58.257Z,-3.89
2023-01-19T01:29:30.839Z,-3.98
2023-01-19T01:32:01.270Z,-4.08
2023-01-19T01:34:31.350Z,-4.20
2023-01-19T01:37:01.395Z,-4.09
2023-01-19T01:39:31.611Z,-4.02
2023-01-19T01:42:01.636Z,-3.96
2023-01-19T01:44:55.018Z,-3.87
2023-01-19T01:47:35.375Z,-3.92
2023-01-19T01:50:14.269Z,-4.03
2023-01-19T01:53:06.397Z,-4.09
2023-01-19T01:55:42.583Z,-4.16
2023-01-19T01:58:15.194Z,-4.05
2023-01-19T02:01:00.551Z,-4.05
2023-01-19T02:03:33.211Z,-4.15
2023-01-19T02:06:07.972Z,-4.11
2023-01-19T02:08:59.131Z,-4.01
2023-01-19T02:11:43.252Z,-3.85
2023-01-19T02:14:13.260Z,-4.04
2023-01-19T02:16:46.050Z,-4.08
2023-01-19T02:19:24.584Z,-3.89
2023-01-19T02:22:03.943Z,-3.97
2023-01-19T02:24:37.138Z,-4.00
2023-01-19T02:27:09.869Z,-3.88
2023-01-19T02:29:39.963Z,-4.06
2023-01-19T02:32:11.191Z,-4.20
2023-01-19T02:34:41.304Z,-3.72
2023-01-19T02:37:15.896Z,-3.60
2023-01-19T02:39:54.982Z,-3.34
2023-01-19T02:42:30.675Z,-3.43
2023-01-19T02:45:06.622Z,-3.46
2023-01-19T02:47:42.487Z,-3.79
2023-01-19T02:50:50.626Z,-3.98
2023-01-19T02:53:48.443Z,-4.05
2023-01-19T02:56:42.333Z,-4.15
2023-01-19T02:59:25.289Z,-4.29
2023-01-19T03:02:17.795Z,-4.45
2023-01-19T03:05:09.791Z,-4.46
2023-01-19T03:07:57.223Z,-4.60
2023-01-19T03:10:38.826Z,-4.69
2023-01-19T03:13:19.242Z,-4.82
2023-01-19T03:15:55.290Z,-4.72
2023-01-19T03:18:34.915Z,-4.81
2023-01-19T03:21:10.113Z,-4.90
2023-01-19T03:23:44.712Z,-4.69
2023-01-19T03:26:24.397Z,-4.80
2023-01-19T03:28:59.004Z,-4.91
2023-01-19T03:31:35.450Z,-4.72
2023-01-19T03:34:11.345Z,-4.50
2023-01-19T03:36:47.486Z,-4.34
2023-01-19T03:39:24.378Z,-4.22
2023-01-19T03:42:00.490Z,-4.23
2023-01-19T03:44:37.197Z,-4.37
2023-01-19T03:47:11.470Z,-4.53
2023-01-19T03:49:45.870Z,-4.70
2023-01-19T03:52:15.888Z,-4.76
2023-01-19T03:54:46.150Z,-4.76
2023-01-19T03:57:16.105Z,-4.87
2023-01-19T03:59:49.606Z,-5.05
2023-01-19T04:02:19.664Z,-5.12
2023-01-19T04:04:49.667Z,-5.11
2023-01-19T04:07:19.794Z,-5.12
2023-01-19T04:09:49.742Z,-5.18
2023-01-19T04:12:19.686Z,-5.30
2023-01-19T04:14:52.217Z,-5.37
2023-01-19T04:17:22.132Z,-5.44
2023-01-19T04:19:53.401Z,-5.53
2023-01-19T04:22:23.396Z,-5.58
2023-01-19T04:24:53.410Z,-5.68
2023-01-19T04:27:23.343Z,-5.74
2023-01-19T04:29:55.869Z,-5.57
2023-01-19T04:32:26.137Z,-5.70
2023-01-19T04:34:56.049Z,-5.77
2023-01-19T04:37:26.155Z,-5.82
2023-01-19T04:39:56.129Z,-5.91
2023-01-19T04:42:27.622Z,-5.63
2023-01-19T04:45:00.531Z,-5.52
2023-01-19T04:47:31.038Z,-5.47
2023-01-19T04:50:00.976Z,-5.50
2023-01-19T04:52:36.344Z,-5.50
2023-01-19T04:55:08.732Z,-5.52
2023-01-19T04:57:38.894Z,-5.49
2023-01-19T05:00:13.768Z,-5.48
2023-01-19T05:02:45.379Z,-5.44
2023-01-19T05:05:16.281Z,-5.43
2023-01-19T05:07:46.985Z,-5.43
2023-01-19T05:10:17.007Z,-5.47
2023-01-19T05:12:47.001Z,-5.48
2023-01-19T05:15:19.761Z,-5.48
2023-01-19T05:17:49.765Z,-5.50
2023-01-19T05:20:20.540Z,-5.48
2023-01-19T05:22:53.420Z,-5.39
2023-01-19T05:25:23.984Z,-5.30
2023-01-19T05:27:53.919Z,-4.94
2023-01-19T05:30:26.576Z,-4.89
2023-01-19T05:32:56.698Z,-4.76
2023-01-19T05:35:35.622Z,-4.62
2023-01-19T05:38:05.981Z,-4.28
2023-01-19T05:40:36.254Z,-4.06
2023-01-19T05:43:06.996Z,-3.93
2023-01-19T05:45:39.916Z,-3.88
2023-01-19T05:48:11.414Z,-3.74
2023-01-19T05:50:41.334Z,-3.91
2023-01-19T05:53:11.316Z,-4.12
2023-01-19T05:55:41.299Z,-4.00
2023-01-19T05:58:11.309Z,-4.05
2023-01-19T06:00:43.856Z,-4.15
2023-01-19T06:03:13.909Z,-4.38
2023-01-19T06:05:43.902Z,-4.47
2023-01-19T06:08:14.655Z,-4.53
2023-01-19T06:10:44.769Z,-4.72
2023-01-19T06:13:14.775Z,-4.70
2023-01-19T06:15:47.672Z,-4.76
2023-01-19T06:18:17.670Z,-4.45
2023-01-19T06:20:47.645Z,-4.05
2023-01-19T06:23:17.632Z,-4.17
2023-01-19T06:25:47.584Z,-4.28
2023-01-19T06:28:17.508Z,-4.31
2023-01-19T06:30:52.603Z,-4.38
2023-01-19T06:33:24.068Z,-4.52
2023-01-19T06:35:54.733Z,-4.55
2023-01-19T06:38:24.974Z,-4.69
2023-01-19T06:40:58.601Z,-4.62
2023-01-19T06:43:29.872Z,-4.66
2023-01-19T06:46:04.074Z,-4.15
2023-01-19T06:48:34.107Z,-4.16
2023-01-19T06:51:06.002Z,-4.17
2023-01-19T06:53:36.475Z,-4.19
2023-01-19T06:56:07.270Z,-4.19
2023-01-19T06:58:37.939Z,-4.08
2023-01-19T07:01:11.304Z,-3.99
2023-01-19T07:03:41.966Z,-3.88
2023-01-19T07:06:12.631Z,-3.79
2023-01-19T07:08:43.432Z,-3.31
2023-01-19T07:11:22.320Z,-3.17
2023-01-19T07:14:00.721Z,-3.00
2023-01-19T07:16:33.790Z,-2.82
2023-01-19T07:19:03.792Z,-2.98
2023-01-19T07:21:33.897Z,-3.17
2023-01-19T07:24:03.927Z,-3.21
2023-01-19T07:26:34.234Z,-3.10
2023-01-19T07:29:04.270Z,-3.09
2023-01-19T07:31:36.982Z,-3.09
2023-01-19T07:34:06.989Z,-3.21
2023-01-19T07:36:37.153Z,-3.19
2023-01-19T07:39:07.424Z,-2.98
2023-01-19T07:41:37.376Z,-2.89
2023-01-19T07:44:10.307Z,-2.68
2023-01-19T07:46:43.605Z,-2.53
2023-01-19T07:49:13.941Z,-2.43
2023-01-19T07:51:43.975Z,-2.29
2023-01-19T07:54:13.950Z,-2.32
2023-01-19T07:56:43.899Z,-2.41
2023-01-19T07:59:14.737Z,-2.63
2023-01-19T08:01:47.339Z,-2.68
2023-01-19T08:04:19.103Z,-2.73
2023-01-19T08:06:49.915Z,-2.79
2023-01-19T08:09:20.777Z,-3.05
2023-01-19T08:11:50.683Z,-3.21
2023-01-19T08:14:20.798Z,-3.18
2023-01-19T08:16:53.343Z,-2.96
2023-01-19T08:19:23.859Z,-2.82
2023-01-19T08:21:53.810Z,-2.77
2023-01-19T08:24:28.577Z,-2.73
2023-01-19T08:27:02.152Z,-2.80
2023-01-19T08:29:33.785Z,-2.73
2023-01-19T08:32:06.821Z,-2.64
2023-01-19T08:34:36.873Z,-2.63
2023-01-19T08:37:06.859Z,-2.31
2023-01-19T08:39:36.882Z,-1.84
2023-01-19T08:42:06.984Z,-1.46
2023-01-19T08:44:43.777Z,-1.30
2023-01-19T08:47:22.363Z,-1.39
2023-01-19T08:49:52.357Z,-1.20
2023-01-19T08:52:22.279Z,-1.13
2023-01-19T08:54:52.226Z,-1.04
2023-01-19T08:57:22.193Z,-0.93
2023-01-19T08:59:52.153Z,-1.22
2023-01-19T09:02:25.092Z,-1.01
2023-01-19T09:04:55.107Z,-0.95
2023-01-19T09:07:25.089Z,-1.36
2023-01-19T09:09:55.054Z,-1.30
2023-01-19T09:12:25.080Z,-1.19
2023-01-19T09:14:55.014Z,-0.85
2023-01-19T09:17:27.721Z,-0.54
2023-01-19T09:19:57.696Z,-0.54
2023-01-19T09:22:27.878Z,-0.54
2023-01-19T09:24:58.592Z,-0.37
2023-01-19T09:27:28.756Z,-0.12
2023-01-19T09:29:58.837Z,0.11
2023-01-19T09:32:31.423Z,0.07
2023-01-19T09:35:01.436Z,0.28
2023-01-19T09:37:31.777Z,0.45
2023-01-19T09:40:01.799Z,0.57
2023-01-19T09:42:44.159Z,0.75
2023-01-19T09:45:25.657Z,0.38
2023-01-19T09:48:01.440Z,0.31
2023-01-19T09:50:39.841Z,0.19
2023-01-19T09:53:19.741Z,0.39
2023-01-19T09:55:50.046Z,0.50
2023-01-19T09:58:21.087Z,0.46
2023-01-19T10:01:01.428Z,0.29
2023-01-19T10:03:39.023Z,0.50
2023-01-19T10:06:14.497Z,0.63
2023-01-19T10:08:55.098Z,0.87
2023-01-19T10:11:51.673Z,0.95
2023-01-19T10:14:31.095Z,0.68
2023-01-19T10:17:14.875Z,0.78
2023-01-19T10:19:52.631Z,1.13
2023-01-19T10:22:25.644Z,1.46
2023-01-19T10:25:00.357Z,1.16
2023-01-19T10:27:34.556Z,1.33
2023-01-19T10:30:05.467Z,1.04
2023-01-19T10:32:39.548Z,1.15
2023-01-19T10:35:23.450Z,1.21
2023-01-19T10:37:56.205Z,1.37
2023-01-19T10:40:37.401Z,1.54
2023-01-19T10:43:44.322Z,1.73
2023-01-19T10:46:40.311Z,1.94
2023-01-19T10:49:26.424Z,2.05
2023-01-19T10:52:01.863Z,2.06
2023-01-19T10:54:34.447Z,2.24
2023-01-19T10:57:07.486Z,2.38
2023-01-19T10:59:41.609Z,2.36
2023-01-19T11:02:23.062Z,2.22
2023-01-19T11:04:55.946Z,1.74
2023-01-19T11:07:33.499Z,1.65
2023-01-19T11:10:25.510Z,1.82
2023-01-19T11:13:07.726Z,1.40
2023-01-19T11:15:45.593Z,1.48
2023-01-19T11:18:31.410Z,1.45
2023-01-19T11:21:06.588Z,1.04
2023-01-19T11:23:44.717Z,1.18
2023-01-19T11:26:31.726Z,1.07
2023-01-19T11:29:06.339Z,1.08
2023-01-19T11:31:38.987Z,1.26
2023-01-19T11:34:30.083Z,1.05
2023-01-19T11:37:04.237Z,1.17
2023-01-19T11:39:51.807Z,1.18
2023-01-19T11:42:23.307Z,1.21
2023-01-19T11:45:05.280Z,1.10
2023-01-19T11:47:43.994Z,1.19
2023-01-19T11:50:28.044Z,1.15
2023-01-19T11:53:04.182Z,1.03
2023-01-19T11:55:48.981Z,1.28
2023-01-19T11:58:22.531Z,1.15
2023-01-19T12:01:01.052Z,1.17
2023-01-19T12:03:35.671Z,1.15
2023-01-19T12:06:12.342Z,1.48
2023-01-19T12:08:49.866Z,1.41
2023-01-19T12:11:30.419Z,1.01
2023-01-19T12:14:03.049Z,1.31
2023-01-19T12:16:37.867Z,1.48
2023-01-19T12:26:38.196Z,1.58
2023-01-19T12:29:15.986Z,1.25
2023-01-19T12:31:47.169Z,1.49
2023-01-19T12:34:43.359Z,1.46
2023-01-19T12:37:38.964Z,1.06
2023-01-19T12:40:28.416Z,0.74
2023-01-19T12:43:08.981Z,0.76
2023-01-19T12:45:41.697Z,0.88
2023-01-19T12:48:29.443Z,0.97
2023-01-19T12:50:59.805Z,0.95
2023-01-19T12:53:31.055Z,0.79
2023-01-19T12:56:03.085Z,0.96
2023-01-19T12:58:35.842Z,0.97
2023-01-19T13:01:19.226Z,1.05
2023-01-19T13:04:06.736Z,0.97
2023-01-19T13:07:11.036Z,1.05
2023-01-19T13:09:43.412Z,0.92
2023-01-19T13:12:30.153Z,1.01
2023-01-19T13:15:37.100Z,1.25
2023-01-19T13:18:10.776Z,1.19
2023-01-19T13:20:53.084Z,1.17
2023-01-19T13:23:27.488Z,1.30
2023-01-19T13:26:07.441Z,1.28
2023-01-19T13:28:44.819Z,1.03
2023-01-19T13:31:18.423Z,0.92
2023-01-19T13:33:55.591Z,0.96
2023-01-19T13:36:32.714Z,1.00
2023-01-19T13:39:09.286Z,1.19
2023-01-19T13:41:43.783Z,1.52
2023-01-19T13:44:23.969Z,1.83
2023-01-19T13:46:59.906Z,1.93
2023-01-19T13:49:34.631Z,1.77
2023-01-19T13:52:17.135Z,1.61
2023-01-19T13:54:53.471Z,1.44
2023-01-19T13:57:29.647Z,1.47
2023-01-19T14:00:21.023Z,1.34
2023-01-19T14:03:01.824Z,1.13
2023-01-19T14:05:35.176Z,1.03
2023-01-19T14:08:15.152Z,0.92
2023-01-19T14:10:48.641Z,0.99
2023-01-19T14:13:22.750Z,1.01
2023-01-19T14:15:55.438Z,0.98
2023-01-19T14:18:34.757Z,1.03
2023-01-19T14:21:08.539Z,1.07
2023-01-19T14:23:50.327Z,1.04
2023-01-19T14:26:46.262Z,1.08
2023-01-19T14:29:26.227Z,1.04
2023-01-19T14:32:15.698Z,0.91
2023-01-19T14:34:51.506Z,0.90
2023-01-19T14:37:26.294Z,0.63
2023-01-19T14:40:04.898Z,0.78
2023-01-19T14:42:41.619Z,0.87
2023-01-19T14:45:22.122Z,0.72
2023-01-19T14:48:00.345Z,0.62
2023-01-19T14:50:38.758Z,0.68
2023-01-19T14:53:18.290Z,0.68
2023-01-19T14:55:52.210Z,0.71
2023-01-19T14:58:25.511Z,0.69
2023-01-19T15:00:57.207Z,0.60
2023-01-19T15:03:43.469Z,0.57
2023-01-19T15:06:21.691Z,0.51
2023-01-19T15:08:53.525Z,0.59
2023-01-19T15:11:28.956Z,0.60
2023-01-19T15:13:59.184Z,0.41
2023-01-19T15:16:32.505Z,0.40
2023-01-19T15:19:03.965Z,0.39
2023-01-19T15:21:37.686Z,0.39
2023-01-19T15:24:08.290Z,0.44
2023-01-19T15:26:40.221Z,0.28
2023-01-19T15:29:24.754Z,0.26
2023-01-19T15:31:55.834Z,0.32
2023-01-19T15:34:25.827Z,0.44
2023-01-19T15:36:59.950Z,0.52
2023-01-19T15:39:30.034Z,0.52
2023-01-19T15:42:00.053Z,0.50
2023-01-19T15:44:30.154Z,0.59
2023-01-19T15:47:00.190Z,0.55
2023-01-19T15:49:31.002Z,0.62
2023-01-19T15:52:03.776Z,0.59
2023-01-19T15:54:33.735Z,0.46
2023-01-19T15:57:03.849Z,0.48
2023-01-19T15:59:33.879Z,0.35
2023-01-19T16:02:04.171Z,0.35
2023-01-19T16:04:34.207Z,0.32
2023-01-19T16:07:06.984Z,0.13
2023-01-19T16:09:36.998Z,0.17
2023-01-19T16:12:07.275Z,0.13
2023-01-19T16:14:37.276Z,0.04
2023-01-19T16:17:07.273Z,-0.02
2023-01-19T16:19:37.290Z,0.05
2023-01-19T16:22:10.954Z,0.09
2023-01-19T16:24:40.944Z,-0.13
2023-01-19T16:27:11.023Z,-0.02
2023-01-19T16:29:40.997Z,0.09
2023-01-19T16:32:11.186Z,0.03
2023-01-19T16:34:41.135Z,0.03
2023-01-19T16:37:14.706Z,-0.01
2023-01-19T16:39:46.529Z,0.09
2023-01-19T16:42:16.585Z,-0.05
2023-01-19T16:44:46.656Z,0.02
2023-01-19T16:47:16.685Z,-0.05
2023-01-19T16:49:46.678Z,0.19
2023-01-19T16:52:19.464Z,-0.02
2023-01-19T16:54:49.473Z,0.07
2023-01-19T16:57:19.524Z,0.06
2023-01-19T16:59:50.704Z,-0.02
2023-01-19T17:02:20.774Z,0.00
2023-01-19T17:04:50.764Z,0.11
2023-01-19T17:07:23.350Z,0.08
2023-01-19T17:09:53.328Z,-0.06
2023-01-19T17:12:23.342Z,-0.16
2023-01-19T17:14:53.511Z,-0.10
2023-01-19T17:17:23.568Z,-0.08
2023-01-19T17:19:53.558Z,-0.09
2023-01-19T17:22:26.118Z,-0.13
2023-01-19T17:24:56.256Z,-0.12
2023-01-19T17:27:26.266Z,-0.15
2023-01-19T17:29:56.320Z,-0.23
2023-01-19T17:32:26.304Z,-0.32
2023-01-19T17:34:56.320Z,-0.40
2023-01-19T17:37:28.872Z,-0.39
2023-01-19T17:39:59.882Z,-0.40
2023-01-19T17:42:30.054Z,-0.48
2023-01-19T17:45:00.089Z,-0.39
2023-01-19T17:47:30.154Z,-0.38
2023-01-19T17:50:00.248Z,-0.42
2023-01-19T17:52:33.540Z,-0.38
2023-01-19T17:55:03.732Z,-0.37
2023-01-19T17:57:33.886Z,-0.43
2023-01-19T18:00:03.990Z,-0.41
2023-01-19T18:02:42.441Z,-0.57
2023-01-19T18:05:14.944Z,-0.74
2023-01-19T18:07:47.933Z,-0.84
2023-01-19T18:10:18.876Z,-0.84
2023-01-19T18:12:49.220Z,-0.84
2023-01-19T18:15:19.384Z,-1.07
2023-01-19T18:17:49.390Z,-1.03
2023-01-19T18:20:20.334Z,-1.03
2023-01-19T18:22:53.036Z,-0.84
2023-01-19T18:25:23.128Z,-0.82
2023-01-19T18:27:53.094Z,-0.87
2023-01-19T18:30:24.496Z,-0.83
2023-01-19T18:32:55.524Z,-0.72
2023-01-19T18:35:25.741Z,-0.73
2023-01-19T18:37:59.457Z,-0.81
2023-01-19T18:40:29.482Z,-0.75
2023-01-19T18:42:59.550Z,-0.74
2023-01-19T18:45:29.570Z,-0.69
2023-01-19T18:47:59.626Z,-0.62
2023-01-19T18:50:30.221Z,-0.58
2023-01-19T18:53:03.108Z,-0.48
2023-01-19T18:55:33.177Z,-0.44
2023-01-19T18:58:04.268Z,-0.61
2023-01-19T19:00:35.499Z,-0.54
2023-01-19T19:03:10.529Z,-0.33
2023-01-19T19:05:41.594Z,-0.23
2023-01-19T19:08:14.748Z,-0.26
2023-01-19T19:10:45.839Z,-0.25
2023-01-19T19:13:17.010Z,-0.26
2023-01-19T19:15:47.311Z,-0.20
2023-01-19T19:18:17.486Z,-0.23
2023-01-19T19:20:47.938Z,-0.15
2023-01-19T19:23:20.908Z,0.04
2023-01-19T19:25:50.866Z,-0.03
2023-01-19T19:28:21.050Z,-0.04
2023-01-19T19:30:52.652Z,-0.05
2023-01-19T19:33:22.670Z,0.02
2023-01-19T19:36:00.531Z,0.02
2023-01-19T19:38:33.750Z,-0.05
2023-01-19T19:41:08.851Z,-0.12
2023-01-19T19:43:39.826Z,-0.34
2023-01-19T19:46:14.057Z,-0.50
2023-01-19T19:48:44.727Z,-0.58
2023-01-19T19:51:19.095Z,-0.60
2023-01-19T19:53:53.199Z,-0.61
2023-01-19T19:56:25.666Z,-0.64
2023-01-19T19:58:59.248Z,-0.64
2023-01-19T20:01:33.779Z,-0.66
2023-01-19T20:04:10.093Z,-0.74
2023-01-19T20:06:44.881Z,-0.77
2023-01-19T20:09:19.226Z,-0.79
2023-01-19T20:11:50.089Z,-0.83
2023-01-19T20:14:21.395Z,-0.81
2023-01-19T20:16:52.673Z,-0.80
2023-01-19T20:19:22.707Z,-0.74
2023-01-19T20:21:52.739Z,-0.70
2023-01-19T20:24:25.489Z,-0.77
2023-01-19T20:26:57.625Z,-0.73
2023-01-19T20:29:28.549Z,-0.66
2023-01-19T20:31:59.760Z,-0.65
2023-01-19T20:34:34.270Z,-0.70
2023-01-19T20:37:06.164Z,-0.64
2023-01-19T20:39:39.026Z,-0.64
2023-01-19T20:42:11.348Z,-0.61
2023-01-19T20:44:41.533Z,-0.66
2023-01-19T20:47:12.930Z,-0.64
2023-01-19T20:49:43.253Z,-0.59
2023-01-19T20:52:13.281Z,-0.55
2023-01-19T20:54:45.838Z,-0.56
2023-01-19T20:57:15.917Z,-0.68
2023-01-19T20:59:45.981Z,-0.72
2023-01-19T21:02:16.926Z,-0.75
2023-01-19T21:04:47.059Z,-0.62
2023-01-19T21:07:17.640Z,-0.54
2023-01-19T21:09:50.181Z,-0.56
2023-01-19T21:12:21.477Z,-0.66
2023-01-19T21:14:51.505Z,-0.58
2023-01-19T21:17:21.502Z,-0.60
2023-01-19T21:19:51.467Z,-0.60
2023-01-19T21:22:21.475Z,-0.65
2023-01-19T21:24:54.154Z,-0.59
2023-01-19T21:27:24.127Z,-0.61
2023-01-19T21:29:54.106Z,-0.61
2023-01-19T21:32:24.142Z,-0.59
2023-01-19T21:34:54.079Z,-0.69
2023-01-19T21:37:24.369Z,-0.85
2023-01-19T21:39:57.190Z,-0.95
2023-01-19T21:42:27.179Z,-1.05
2023-01-19T21:44:57.150Z,-1.06
2023-01-19T21:47:27.265Z,-1.17
2023-01-19T21:49:57.333Z,-1.22
2023-01-19T21:52:27.444Z,-1.21
2023-01-19T21:54:59.965Z,-1.22
2023-01-19T21:57:30.008Z,-1.29
2023-01-19T21:59:59.990Z,-1.39
2023-01-19T22:02:38.189Z,-1.42
2023-01-19T22:05:10.939Z,-1.46
2023-01-19T22:07:41.630Z,-1.66
2023-01-19T22:10:15.001Z,-1.78
2023-01-19T22:12:45.028Z,-1.78
2023-01-19T22:15:15.385Z,-1.88
2023-01-19T22:17:45.603Z,-1.95
2023-01-19T22:20:16.301Z,-2.11
2023-01-19T22:22:46.366Z,-2.10
2023-01-19T22:25:22.057Z,-2.14
2023-01-19T22:27:52.114Z,-2.08
2023-01-19T22:30:22.618Z,-2.04
2023-01-19T22:32:53.200Z,-2.02
2023-01-19T22:35:23.945Z,-1.97
2023-01-19T22:37:53.940Z,-1.91
2023-01-19T22:40:26.543Z,-1.92
2023-01-19T22:42:56.532Z,-1.87
2023-01-19T22:45:26.665Z,-1.82
2023-01-19T22:47:56.750Z,-1.80
2023-01-19T22:50:26.701Z,-1.75
2023-01-19T22:52:58.695Z,-1.66
2023-01-19T22:55:32.687Z,-1.69
2023-01-19T22:58:02.667Z,-1.60
2023-01-19T23:00:32.646Z,-1.53
2023-01-19T23:03:02.656Z,-1.46
2023-01-19T23:05:32.697Z,-1.43
2023-01-19T23:08:02.699Z,-1.38
2023-01-19T23:10:35.770Z,-1.31
2023-01-19T23:13:05.701Z,-1.34
2023-01-19T23:15:36.488Z,-1.28
2023-01-19T23:18:06.744Z,-1.20
2023-01-19T23:20:36.749Z,-1.17
2023-01-19T23:23:06.849Z,-1.24
2023-01-19T23:25:39.649Z,-1.19
2023-01-19T23:28:09.849Z,-1.13
2023-01-19T23:30:40.115Z,-1.10
2023-01-19T23:33:10.192Z,-1.09
2023-01-19T23:35:40.224Z,-1.04
2023-01-19T23:38:10.316Z,-1.08
2023-01-19T23:40:43.187Z,-1.03
2023-01-19T23:43:13.313Z,-1.03
2023-01-19T23:45:43.304Z,-1.04
2023-01-19T23:48:13.291Z,-1.09
2023-01-19T23:50:43.739Z,-1.03
2023-01-19T23:53:13.806Z,-1.01
2023-01-19T23:55:46.439Z,-1.00
2023-01-19T23:58:16.461Z,-1.05
